sensor_id;sensor_type;location;lat;lon;timestamp;P1;durP1;ratioP1;P2;durP2;ratioP2
49584;SDS011;35491;49.142;9.210;2022-12-07T14:20:51;12.60;;;8.82;;
49584;SDS011;35491;49.142;9.210;2022-12-07T14:23:29;15.10;;;9.45;;
49584;SDS011;35491;49.142;9.210;2022-12-07T14:24:40;13.90;;;8.52;;
49584;SDS011;35491;49.142;9.210;2022-12-07T14:25:46;14.32;;;8.98;;
49584;SDS011;35491;49.142;9.210;2022-12-07T14:26:51;16.38;;;9.23;;
49584;SDS011;35491;49.142;9.210;2022-12-07T14:27:56;15.48;;;9.48;;
49584;SDS011;35491;49.142;9.210;2022-12-07T14:30:33;13.00;;;8.57;;
49584;SDS011;35491;49.142;9.210;2022-12-07T14:31:37;15.20;;;8.93;;
49584;SDS011;35491;49.142;9.210;2022-12-07T14:32:39;12.40;;;8.50;;
49584;SDS011;35491;49.142;9.210;2022-12-07T14:33:49;15.25;;;8.93;;
49584;SDS011;35491;49.142;9.210;2022-12-07T14:34:54;15.63;;;8.95;;
49584;SDS011;35491;49.142;9.210;2022-12-07T14:35:58;12.98;;;9.43;;
49584;SDS011;35491;49.142;9.210;2022-12-07T14:37:03;14.07;;;9.80;;
49584;SDS011;35491;49.142;9.210;2022-12-07T14:38:08;13.13;;;9.88;;
49584;SDS011;35491;49.142;9.210;2022-12-07T14:39:12;14.85;;;9.02;;
49584;SDS011;35491;49.142;9.210;2022-12-07T14:40:14;13.68;;;10.13;;
49584;SDS011;35491;49.142;9.210;2022-12-07T14:41:19;18.20;;;9.43;;
49584;SDS011;35491;49.142;9.210;2022-12-07T14:42:48;15.25;;;10.23;;
49584;SDS011;35491;49.142;9.210;2022-12-07T14:43:59;13.80;;;10.15;;
49584;SDS011;35491;49.142;9.210;2022-12-07T14:45:01;13.82;;;9.65;;
49584;SDS011;35491;49.142;9.210;2022-12-07T14:46:05;14.60;;;9.25;;
49584;SDS011;35491;49.142;9.210;2022-12-07T14:47:09;14.38;;;9.65;;
49584;SDS011;35491;49.142;9.210;2022-12-07T14:48:14;14.20;;;9.52;;
49584;SDS011;35491;49.142;9.210;2022-12-07T14:49:19;15.32;;;9.75;;
49584;SDS011;35491;49.142;9.210;2022-12-07T14:50:21;16.23;;;9.43;;
49584;SDS011;35491;49.142;9.210;2022-12-07T14:51:28;17.27;;;9.55;;
49584;SDS011;35491;49.142;9.210;2022-12-07T14:55:32;13.27;;;9.38;;
49584;SDS011;35491;49.142;9.210;2022-12-07T14:56:37;13.77;;;9.27;;
49584;SDS011;35491;49.142;9.210;2022-12-07T14:57:38;15.55;;;9.90;;
49584;SDS011;35491;49.142;9.210;2022-12-07T14:58:42;14.45;;;9.30;;
49584;SDS011;35491;49.142;9.210;2022-12-07T14:59:48;12.85;;;8.93;;
49584;SDS011;35491;49.142;9.210;2022-12-07T15:00:50;13.38;;;8.68;;
49584;SDS011;35491;49.142;9.210;2022-12-07T15:01:54;11.85;;;8.45;;
49584;SDS011;35491;49.142;9.210;2022-12-07T15:02:56;14.05;;;8.60;;
49584;SDS011;35491;49.142;9.210;2022-12-07T15:04:01;14.27;;;10.27;;
49584;SDS011;35491;49.142;9.210;2022-12-07T15:05:02;14.27;;;9.10;;
49584;SDS011;35491;49.142;9.210;2022-12-07T15:06:07;15.68;;;9.63;;
49584;SDS011;35491;49.142;9.210;2022-12-07T15:07:19;13.15;;;9.52;;
49584;SDS011;35491;49.142;9.210;2022-12-07T15:08:24;16.00;;;10.45;;
49584;SDS011;35491;49.142;9.210;2022-12-07T15:09:25;16.15;;;10.02;;
49584;SDS011;35491;49.142;9.210;2022-12-07T15:10:31;15.10;;;10.05;;
49584;SDS011;35491;49.142;9.210;2022-12-07T15:11:39;16.15;;;10.52;;
49584;SDS011;35491;49.142;9.210;2022-12-07T15:12:43;13.93;;;9.40;;
49584;SDS011;35491;49.142;9.210;2022-12-07T15:13:47;13.68;;;9.35;;
49584;SDS011;35491;49.142;9.210;2022-12-07T15:15:04;15.27;;;10.98;;
49584;SDS011;35491;49.142;9.210;2022-12-07T15:16:09;13.70;;;9.88;;
49584;SDS011;35491;49.142;9.210;2022-12-07T15:17:12;14.05;;;9.27;;
49584;SDS011;35491;49.142;9.210;2022-12-07T15:18:16;15.65;;;10.43;;
49584;SDS011;35491;49.142;9.210;2022-12-07T15:19:22;15.52;;;9.88;;
49584;SDS011;35491;49.142;9.210;2022-12-07T15:20:28;16.83;;;10.57;;
49584;SDS011;35491;49.142;9.210;2022-12-07T15:21:32;16.48;;;10.73;;
49584;SDS011;35491;49.142;9.210;2022-12-07T15:22:36;15.10;;;10.05;;
49584;SDS011;35491;49.142;9.210;2022-12-07T15:23:40;14.93;;;9.98;;
49584;SDS011;35491;49.142;9.210;2022-12-07T15:24:42;14.82;;;10.02;;
49584;SDS011;35491;49.142;9.210;2022-12-07T15:25:47;14.10;;;10.20;;
49584;SDS011;35491;49.142;9.210;2022-12-07T15:26:49;15.27;;;10.23;;
49584;SDS011;35491;49.142;9.210;2022-12-07T15:27:53;18.80;;;11.07;;
49584;SDS011;35491;49.142;9.210;2022-12-07T15:28:55;14.65;;;10.57;;
49584;SDS011;35491;49.142;9.210;2022-12-07T15:29:59;14.18;;;9.98;;
49584;SDS011;35491;49.142;9.210;2022-12-07T15:31:04;17.30;;;11.00;;
49584;SDS011;35491;49.142;9.210;2022-12-07T15:32:15;15.57;;;11.07;;
49584;SDS011;35491;49.142;9.210;2022-12-07T15:33:19;15.65;;;10.13;;
49584;SDS011;35491;49.142;9.210;2022-12-07T15:34:23;15.18;;;11.18;;
49584;SDS011;35491;49.142;9.210;2022-12-07T15:35:37;18.95;;;11.63;;
49584;SDS011;35491;49.142;9.210;2022-12-07T15:36:56;14.38;;;9.73;;
49584;SDS011;35491;49.142;9.210;2022-12-07T15:38:11;14.65;;;10.20;;
49584;SDS011;35491;49.142;9.210;2022-12-07T15:39:42;15.90;;;10.35;;
49584;SDS011;35491;49.142;9.210;2022-12-07T15:40:46;24.80;;;14.48;;
49584;SDS011;35491;49.142;9.210;2022-12-07T15:41:51;17.15;;;11.20;;
49584;SDS011;35491;49.142;9.210;2022-12-07T15:42:56;21.65;;;13.02;;
49584;SDS011;35491;49.142;9.210;2022-12-07T15:43:58;28.58;;;16.13;;
49584;SDS011;35491;49.142;9.210;2022-12-07T15:45:14;17.83;;;11.38;;
49584;SDS011;35491;49.142;9.210;2022-12-07T15:46:19;15.43;;;11.05;;
49584;SDS011;35491;49.142;9.210;2022-12-07T15:47:21;17.33;;;11.60;;
49584;SDS011;35491;49.142;9.210;2022-12-07T15:48:25;18.33;;;10.77;;
49584;SDS011;35491;49.142;9.210;2022-12-07T15:49:29;16.38;;;11.38;;
49584;SDS011;35491;49.142;9.210;2022-12-07T15:50:43;15.65;;;11.32;;
49584;SDS011;35491;49.142;9.210;2022-12-07T15:52:13;19.10;;;12.90;;
49584;SDS011;35491;49.142;9.210;2022-12-07T15:53:23;21.27;;;14.00;;
49584;SDS011;35491;49.142;9.210;2022-12-07T15:54:26;24.45;;;13.70;;
49584;SDS011;35491;49.142;9.210;2022-12-07T15:55:32;17.33;;;12.40;;
49584;SDS011;35491;49.142;9.210;2022-12-07T15:56:34;17.85;;;12.45;;
49584;SDS011;35491;49.142;9.210;2022-12-07T15:57:39;16.98;;;11.35;;
49584;SDS011;35491;49.142;9.210;2022-12-07T16:02:18;16.67;;;11.32;;
49584;SDS011;35491;49.142;9.210;2022-12-07T16:03:23;18.73;;;12.38;;
49584;SDS011;35491;49.142;9.210;2022-12-07T16:04:26;19.02;;;13.07;;
49584;SDS011;35491;49.142;9.210;2022-12-07T16:06:58;23.60;;;13.38;;
49584;SDS011;35491;49.142;9.210;2022-12-07T16:08:03;18.75;;;13.35;;
49584;SDS011;35491;49.142;9.210;2022-12-07T16:09:10;19.92;;;13.38;;
49584;SDS011;35491;49.142;9.210;2022-12-07T16:10:14;16.90;;;12.13;;
49584;SDS011;35491;49.142;9.210;2022-12-07T16:11:21;19.00;;;12.88;;
49584;SDS011;35491;49.142;9.210;2022-12-07T16:12:23;18.45;;;12.60;;
49584;SDS011;35491;49.142;9.210;2022-12-07T16:13:28;19.83;;;13.63;;
49584;SDS011;35491;49.142;9.210;2022-12-07T16:16:27;18.25;;;11.93;;
49584;SDS011;35491;49.142;9.210;2022-12-07T16:17:32;21.77;;;12.50;;
49584;SDS011;35491;49.142;9.210;2022-12-07T16:18:38;18.23;;;12.60;;
49584;SDS011;35491;49.142;9.210;2022-12-07T16:19:45;21.40;;;13.15;;
49584;SDS011;35491;49.142;9.210;2022-12-07T16:20:49;20.13;;;14.23;;
49584;SDS011;35491;49.142;9.210;2022-12-07T16:21:51;20.17;;;13.18;;
49584;SDS011;35491;49.142;9.210;2022-12-07T16:22:55;39.42;;;20.10;;
49584;SDS011;35491;49.142;9.210;2022-12-07T16:23:57;28.10;;;15.80;;
49584;SDS011;35491;49.142;9.210;2022-12-07T16:25:04;24.52;;;14.02;;
49584;SDS011;35491;49.142;9.210;2022-12-07T16:26:10;25.38;;;14.50;;
49584;SDS011;35491;49.142;9.210;2022-12-07T16:27:13;18.90;;;13.23;;
49584;SDS011;35491;49.142;9.210;2022-12-07T16:28:17;20.73;;;14.18;;
49584;SDS011;35491;49.142;9.210;2022-12-07T16:29:19;26.73;;;18.48;;
49584;SDS011;35491;49.142;9.210;2022-12-07T16:30:24;38.53;;;24.40;;
49584;SDS011;35491;49.142;9.210;2022-12-07T16:31:27;25.48;;;16.88;;
49584;SDS011;35491;49.142;9.210;2022-12-07T16:32:32;21.95;;;14.98;;
49584;SDS011;35491;49.142;9.210;2022-12-07T16:33:34;20.25;;;14.48;;
49584;SDS011;35491;49.142;9.210;2022-12-07T16:34:39;20.05;;;13.55;;
49584;SDS011;35491;49.142;9.210;2022-12-07T16:35:43;18.65;;;13.45;;
49584;SDS011;35491;49.142;9.210;2022-12-07T16:36:47;18.27;;;13.18;;
49584;SDS011;35491;49.142;9.210;2022-12-07T16:37:51;19.80;;;12.98;;
49584;SDS011;35491;49.142;9.210;2022-12-07T16:38:52;16.98;;;12.10;;
49584;SDS011;35491;49.142;9.210;2022-12-07T16:39:57;21.92;;;13.23;;
49584;SDS011;35491;49.142;9.210;2022-12-07T16:41:01;18.15;;;11.70;;
49584;SDS011;35491;49.142;9.210;2022-12-07T16:42:06;22.05;;;12.80;;
49584;SDS011;35491;49.142;9.210;2022-12-07T16:43:08;17.15;;;11.15;;
49584;SDS011;35491;49.142;9.210;2022-12-07T16:44:16;18.65;;;12.60;;
49584;SDS011;35491;49.142;9.210;2022-12-07T16:45:21;18.73;;;12.60;;
49584;SDS011;35491;49.142;9.210;2022-12-07T16:46:22;19.20;;;12.38;;
49584;SDS011;35491;49.142;9.210;2022-12-07T16:47:26;15.43;;;11.45;;
49584;SDS011;35491;49.142;9.210;2022-12-07T16:48:31;16.10;;;11.52;;
49584;SDS011;35491;49.142;9.210;2022-12-07T16:49:38;17.42;;;12.07;;
49584;SDS011;35491;49.142;9.210;2022-12-07T16:50:44;17.98;;;11.40;;
49584;SDS011;35491;49.142;9.210;2022-12-07T16:51:49;19.80;;;12.00;;
49584;SDS011;35491;49.142;9.210;2022-12-07T16:52:51;15.70;;;11.55;;
49584;SDS011;35491;49.142;9.210;2022-12-07T16:53:55;16.35;;;11.35;;
49584;SDS011;35491;49.142;9.210;2022-12-07T16:54:57;17.48;;;11.70;;
49584;SDS011;35491;49.142;9.210;2022-12-07T16:56:04;25.30;;;12.82;;
49584;SDS011;35491;49.142;9.210;2022-12-07T16:57:12;19.63;;;12.18;;
49584;SDS011;35491;49.142;9.210;2022-12-07T16:58:24;17.50;;;11.27;;
49584;SDS011;35491;49.142;9.210;2022-12-07T16:59:27;17.90;;;13.15;;
49584;SDS011;35491;49.142;9.210;2022-12-07T17:00:31;20.02;;;14.55;;
49584;SDS011;35491;49.142;9.210;2022-12-07T17:01:33;17.02;;;12.77;;
49584;SDS011;35491;49.142;9.210;2022-12-07T17:02:38;77.07;;;25.00;;
49584;SDS011;35491;49.142;9.210;2022-12-07T17:03:40;66.40;;;24.48;;
49584;SDS011;35491;49.142;9.210;2022-12-07T17:04:44;50.70;;;20.30;;
49584;SDS011;35491;49.142;9.210;2022-12-07T17:05:46;104.80;;;31.40;;
49584;SDS011;35491;49.142;9.210;2022-12-07T17:06:50;34.53;;;16.25;;
49584;SDS011;35491;49.142;9.210;2022-12-07T17:07:55;23.67;;;13.73;;
49584;SDS011;35491;49.142;9.210;2022-12-07T17:08:57;20.60;;;14.27;;
49584;SDS011;35491;49.142;9.210;2022-12-07T17:10:02;22.88;;;14.00;;
49584;SDS011;35491;49.142;9.210;2022-12-07T17:11:14;18.10;;;12.02;;
49584;SDS011;35491;49.142;9.210;2022-12-07T17:12:20;18.75;;;12.25;;
49584;SDS011;35491;49.142;9.210;2022-12-07T17:13:26;20.40;;;12.07;;
49584;SDS011;35491;49.142;9.210;2022-12-07T17:14:42;19.50;;;11.88;;
49584;SDS011;35491;49.142;9.210;2022-12-07T17:15:59;19.80;;;12.82;;
49584;SDS011;35491;49.142;9.210;2022-12-07T17:17:05;24.17;;;13.02;;
49584;SDS011;35491;49.142;9.210;2022-12-07T17:18:07;20.58;;;12.93;;
49584;SDS011;35491;49.142;9.210;2022-12-07T17:19:12;23.42;;;14.00;;
49584;SDS011;35491;49.142;9.210;2022-12-07T17:20:15;18.00;;;12.50;;
49584;SDS011;35491;49.142;9.210;2022-12-07T17:23:00;31.17;;;15.63;;
49584;SDS011;35491;49.142;9.210;2022-12-07T17:24:08;28.58;;;15.98;;
49584;SDS011;35491;49.142;9.210;2022-12-07T17:25:14;32.60;;;16.95;;
49584;SDS011;35491;49.142;9.210;2022-12-07T17:26:30;21.80;;;13.88;;
49584;SDS011;35491;49.142;9.210;2022-12-07T17:27:36;34.15;;;18.30;;
49584;SDS011;35491;49.142;9.210;2022-12-07T17:29:04;28.52;;;15.73;;
49584;SDS011;35491;49.142;9.210;2022-12-07T17:30:19;31.63;;;17.17;;
49584;SDS011;35491;49.142;9.210;2022-12-07T17:31:24;26.42;;;15.77;;
49584;SDS011;35491;49.142;9.210;2022-12-07T17:32:26;20.45;;;13.70;;
49584;SDS011;35491;49.142;9.210;2022-12-07T17:33:30;21.88;;;15.30;;
49584;SDS011;35491;49.142;9.210;2022-12-07T17:34:37;18.27;;;12.32;;
49584;SDS011;35491;49.142;9.210;2022-12-07T17:35:41;20.02;;;13.30;;
49584;SDS011;35491;49.142;9.210;2022-12-07T17:36:43;19.00;;;13.13;;
49584;SDS011;35491;49.142;9.210;2022-12-07T17:37:47;21.60;;;13.55;;
49584;SDS011;35491;49.142;9.210;2022-12-07T17:38:52;17.33;;;12.73;;
49584;SDS011;35491;49.142;9.210;2022-12-07T17:39:54;18.05;;;13.00;;
49584;SDS011;35491;49.142;9.210;2022-12-07T17:40:59;18.45;;;12.40;;
49584;SDS011;35491;49.142;9.210;2022-12-07T17:42:04;16.50;;;11.98;;
49584;SDS011;35491;49.142;9.210;2022-12-07T17:43:20;18.38;;;12.20;;
49584;SDS011;35491;49.142;9.210;2022-12-07T17:44:26;19.30;;;12.25;;
49584;SDS011;35491;49.142;9.210;2022-12-07T17:45:28;17.50;;;12.63;;
49584;SDS011;35491;49.142;9.210;2022-12-07T17:46:32;18.67;;;12.65;;
49584;SDS011;35491;49.142;9.210;2022-12-07T17:47:35;16.35;;;11.95;;
49584;SDS011;35491;49.142;9.210;2022-12-07T17:48:39;18.65;;;12.80;;
49584;SDS011;35491;49.142;9.210;2022-12-07T17:49:43;16.13;;;11.63;;
49584;SDS011;35491;49.142;9.210;2022-12-07T17:50:46;18.23;;;12.23;;
49584;SDS011;35491;49.142;9.210;2022-12-07T17:52:03;17.35;;;13.85;;
49584;SDS011;35491;49.142;9.210;2022-12-07T17:53:19;18.23;;;12.93;;
49584;SDS011;35491;49.142;9.210;2022-12-07T17:54:24;14.20;;;10.32;;
49584;SDS011;35491;49.142;9.210;2022-12-07T17:55:25;15.00;;;11.35;;
49584;SDS011;35491;49.142;9.210;2022-12-07T17:56:30;17.75;;;12.55;;
49584;SDS011;35491;49.142;9.210;2022-12-07T17:57:37;17.17;;;11.57;;
49584;SDS011;35491;49.142;9.210;2022-12-07T17:58:41;18.40;;;13.35;;
49584;SDS011;35491;49.142;9.210;2022-12-07T17:59:45;18.55;;;13.60;;
49584;SDS011;35491;49.142;9.210;2022-12-07T18:00:47;17.23;;;11.90;;
49584;SDS011;35491;49.142;9.210;2022-12-07T18:01:51;17.10;;;12.75;;
49584;SDS011;35491;49.142;9.210;2022-12-07T18:02:53;18.73;;;13.02;;
49584;SDS011;35491;49.142;9.210;2022-12-07T18:03:58;15.65;;;12.20;;
49584;SDS011;35491;49.142;9.210;2022-12-07T18:05:03;17.85;;;12.50;;
49584;SDS011;35491;49.142;9.210;2022-12-07T18:06:05;19.92;;;14.80;;
49584;SDS011;35491;49.142;9.210;2022-12-07T18:07:10;18.13;;;13.57;;
49584;SDS011;35491;49.142;9.210;2022-12-07T18:08:14;19.52;;;14.07;;
49584;SDS011;35491;49.142;9.210;2022-12-07T18:09:19;19.00;;;14.10;;
49584;SDS011;35491;49.142;9.210;2022-12-07T18:10:22;17.45;;;13.10;;
49584;SDS011;35491;49.142;9.210;2022-12-07T18:11:26;18.52;;;13.30;;
49584;SDS011;35491;49.142;9.210;2022-12-07T18:12:31;19.77;;;12.65;;
49584;SDS011;35491;49.142;9.210;2022-12-07T18:13:37;19.20;;;12.63;;
49584;SDS011;35491;49.142;9.210;2022-12-07T18:14:39;17.05;;;12.38;;
49584;SDS011;35491;49.142;9.210;2022-12-07T18:15:43;17.83;;;12.93;;
49584;SDS011;35491;49.142;9.210;2022-12-07T18:16:45;19.35;;;13.02;;
49584;SDS011;35491;49.142;9.210;2022-12-07T18:17:50;18.50;;;12.63;;
49584;SDS011;35491;49.142;9.210;2022-12-07T18:18:57;17.77;;;12.70;;
49584;SDS011;35491;49.142;9.210;2022-12-07T18:20:07;19.30;;;13.95;;
49584;SDS011;35491;49.142;9.210;2022-12-07T18:21:12;18.35;;;13.00;;
49584;SDS011;35491;49.142;9.210;2022-12-07T18:22:16;19.50;;;13.55;;
49584;SDS011;35491;49.142;9.210;2022-12-07T18:23:20;18.92;;;13.45;;
49584;SDS011;35491;49.142;9.210;2022-12-07T18:24:22;19.90;;;13.75;;
49584;SDS011;35491;49.142;9.210;2022-12-07T18:25:27;19.00;;;12.98;;
49584;SDS011;35491;49.142;9.210;2022-12-07T18:26:32;17.23;;;12.82;;
49584;SDS011;35491;49.142;9.210;2022-12-07T18:27:38;17.83;;;13.07;;
49584;SDS011;35491;49.142;9.210;2022-12-07T18:28:45;19.52;;;12.75;;
49584;SDS011;35491;49.142;9.210;2022-12-07T18:29:47;17.75;;;12.88;;
49584;SDS011;35491;49.142;9.210;2022-12-07T18:30:52;17.52;;;12.75;;
49584;SDS011;35491;49.142;9.210;2022-12-07T18:31:57;17.30;;;12.25;;
49584;SDS011;35491;49.142;9.210;2022-12-07T18:33:01;18.65;;;13.52;;
49584;SDS011;35491;49.142;9.210;2022-12-07T18:34:06;17.65;;;13.02;;
49584;SDS011;35491;49.142;9.210;2022-12-07T18:35:11;17.85;;;13.32;;
49584;SDS011;35491;49.142;9.210;2022-12-07T18:36:16;17.50;;;12.50;;
49584;SDS011;35491;49.142;9.210;2022-12-07T18:37:17;17.60;;;13.20;;
49584;SDS011;35491;49.142;9.210;2022-12-07T18:38:27;17.10;;;12.07;;
49584;SDS011;35491;49.142;9.210;2022-12-07T18:39:28;18.65;;;13.70;;
49584;SDS011;35491;49.142;9.210;2022-12-07T18:40:32;18.23;;;13.35;;
49584;SDS011;35491;49.142;9.210;2022-12-07T18:41:40;18.95;;;13.48;;
49584;SDS011;35491;49.142;9.210;2022-12-07T18:42:45;18.45;;;13.38;;
49584;SDS011;35491;49.142;9.210;2022-12-07T18:43:52;17.20;;;12.15;;
49584;SDS011;35491;49.142;9.210;2022-12-07T18:44:54;17.05;;;12.55;;
49584;SDS011;35491;49.142;9.210;2022-12-07T18:45:58;18.00;;;12.70;;
49584;SDS011;35491;49.142;9.210;2022-12-07T18:47:03;20.30;;;13.93;;
49584;SDS011;35491;49.142;9.210;2022-12-07T18:48:05;19.80;;;13.77;;
49584;SDS011;35491;49.142;9.210;2022-12-07T18:49:09;20.58;;;14.13;;
49584;SDS011;35491;49.142;9.210;2022-12-07T18:50:12;18.63;;;13.93;;
49584;SDS011;35491;49.142;9.210;2022-12-07T18:51:17;18.67;;;12.90;;
49584;SDS011;35491;49.142;9.210;2022-12-07T18:52:20;17.70;;;12.82;;
49584;SDS011;35491;49.142;9.210;2022-12-07T18:53:24;17.33;;;13.48;;
49584;SDS011;35491;49.142;9.210;2022-12-07T18:54:26;18.27;;;13.93;;
49584;SDS011;35491;49.142;9.210;2022-12-07T18:55:30;20.30;;;13.90;;
49584;SDS011;35491;49.142;9.210;2022-12-07T18:56:35;17.38;;;13.45;;
49584;SDS011;35491;49.142;9.210;2022-12-07T18:57:37;18.02;;;13.45;;
49584;SDS011;35491;49.142;9.210;2022-12-07T18:58:41;18.95;;;14.43;;
49584;SDS011;35491;49.142;9.210;2022-12-07T19:00:06;17.92;;;13.75;;
49584;SDS011;35491;49.142;9.210;2022-12-07T19:01:12;20.38;;;13.80;;
49584;SDS011;35491;49.142;9.210;2022-12-07T19:02:17;19.35;;;12.85;;
49584;SDS011;35491;49.142;9.210;2022-12-07T19:03:18;17.65;;;13.07;;
49584;SDS011;35491;49.142;9.210;2022-12-07T19:04:23;18.80;;;13.48;;
49584;SDS011;35491;49.142;9.210;2022-12-07T19:05:27;16.45;;;12.52;;
49584;SDS011;35491;49.142;9.210;2022-12-07T19:06:31;16.55;;;12.82;;
49584;SDS011;35491;49.142;9.210;2022-12-07T19:07:34;16.65;;;12.00;;
49584;SDS011;35491;49.142;9.210;2022-12-07T19:08:38;19.73;;;13.23;;
49584;SDS011;35491;49.142;9.210;2022-12-07T19:09:40;17.77;;;12.88;;
49584;SDS011;35491;49.142;9.210;2022-12-07T19:10:45;16.70;;;12.35;;
49584;SDS011;35491;49.142;9.210;2022-12-07T19:11:49;16.38;;;12.07;;
49584;SDS011;35491;49.142;9.210;2022-12-07T19:12:51;15.77;;;11.90;;
49584;SDS011;35491;49.142;9.210;2022-12-07T19:13:56;17.60;;;13.02;;
49584;SDS011;35491;49.142;9.210;2022-12-07T19:14:58;22.73;;;13.85;;
49584;SDS011;35491;49.142;9.210;2022-12-07T19:16:08;18.60;;;12.50;;
49584;SDS011;35491;49.142;9.210;2022-12-07T19:17:11;15.88;;;12.02;;
49584;SDS011;35491;49.142;9.210;2022-12-07T19:18:16;17.40;;;12.38;;
49584;SDS011;35491;49.142;9.210;2022-12-07T19:19:21;19.13;;;12.88;;
49584;SDS011;35491;49.142;9.210;2022-12-07T19:20:24;18.23;;;12.93;;
49584;SDS011;35491;49.142;9.210;2022-12-07T19:22:49;17.30;;;12.98;;
49584;SDS011;35491;49.142;9.210;2022-12-07T19:25:09;16.67;;;12.15;;
49584;SDS011;35491;49.142;9.210;2022-12-07T19:26:13;16.98;;;11.77;;
49584;SDS011;35491;49.142;9.210;2022-12-07T19:27:15;17.67;;;13.65;;
49584;SDS011;35491;49.142;9.210;2022-12-07T19:28:20;19.92;;;13.75;;
49584;SDS011;35491;49.142;9.210;2022-12-07T19:29:22;18.33;;;11.45;;
49584;SDS011;35491;49.142;9.210;2022-12-07T19:32:17;16.83;;;12.15;;
49584;SDS011;35491;49.142;9.210;2022-12-07T19:33:21;17.63;;;11.77;;
49584;SDS011;35491;49.142;9.210;2022-12-07T19:36:22;16.30;;;12.38;;
49584;SDS011;35491;49.142;9.210;2022-12-07T19:37:32;18.33;;;12.68;;
49584;SDS011;35491;49.142;9.210;2022-12-07T19:42:49;18.65;;;13.70;;
49584;SDS011;35491;49.142;9.210;2022-12-07T19:43:54;18.35;;;12.32;;
49584;SDS011;35491;49.142;9.210;2022-12-07T19:44:55;16.70;;;12.50;;
49584;SDS011;35491;49.142;9.210;2022-12-07T19:46:02;16.13;;;11.43;;
49584;SDS011;35491;49.142;9.210;2022-12-07T19:47:05;15.32;;;11.50;;
49584;SDS011;35491;49.142;9.210;2022-12-07T19:48:12;13.95;;;10.52;;
49584;SDS011;35491;49.142;9.210;2022-12-07T19:50:44;15.10;;;10.95;;
49584;SDS011;35491;49.142;9.210;2022-12-07T19:52:12;14.80;;;10.23;;
49584;SDS011;35491;49.142;9.210;2022-12-07T19:53:17;14.82;;;10.85;;
49584;SDS011;35491;49.142;9.210;2022-12-07T19:54:19;13.45;;;10.45;;
49584;SDS011;35491;49.142;9.210;2022-12-07T19:55:25;13.88;;;10.30;;
49584;SDS011;35491;49.142;9.210;2022-12-07T19:56:30;15.23;;;11.27;;
49584;SDS011;35491;49.142;9.210;2022-12-07T19:57:32;16.58;;;11.27;;
49584;SDS011;35491;49.142;9.210;2022-12-07T19:58:44;16.52;;;12.10;;
49584;SDS011;35491;49.142;9.210;2022-12-07T19:59:47;18.05;;;13.05;;
49584;SDS011;35491;49.142;9.210;2022-12-07T20:00:54;19.48;;;12.60;;
49584;SDS011;35491;49.142;9.210;2022-12-07T20:01:56;19.67;;;13.55;;
49584;SDS011;35491;49.142;9.210;2022-12-07T20:03:00;17.55;;;12.77;;
49584;SDS011;35491;49.142;9.210;2022-12-07T20:04:08;23.27;;;13.07;;
49584;SDS011;35491;49.142;9.210;2022-12-07T20:05:11;17.92;;;12.68;;
49584;SDS011;35491;49.142;9.210;2022-12-07T20:06:16;15.32;;;11.60;;
49584;SDS011;35491;49.142;9.210;2022-12-07T20:07:22;16.52;;;12.30;;
49584;SDS011;35491;49.142;9.210;2022-12-07T20:08:32;17.75;;;12.02;;
49584;SDS011;35491;49.142;9.210;2022-12-07T20:09:34;15.38;;;11.75;;
49584;SDS011;35491;49.142;9.210;2022-12-07T20:10:38;16.90;;;12.35;;
49584;SDS011;35491;49.142;9.210;2022-12-07T20:11:40;16.83;;;12.52;;
49584;SDS011;35491;49.142;9.210;2022-12-07T20:12:58;14.23;;;10.50;;
49584;SDS011;35491;49.142;9.210;2022-12-07T20:14:15;15.10;;;11.20;;
49584;SDS011;35491;49.142;9.210;2022-12-07T20:15:19;17.27;;;11.80;;
49584;SDS011;35491;49.142;9.210;2022-12-07T20:16:26;15.10;;;11.15;;
49584;SDS011;35491;49.142;9.210;2022-12-07T20:17:27;16.50;;;12.45;;
49584;SDS011;35491;49.142;9.210;2022-12-07T20:18:31;15.13;;;11.52;;
49584;SDS011;35491;49.142;9.210;2022-12-07T20:19:38;15.95;;;11.30;;
49584;SDS011;35491;49.142;9.210;2022-12-07T20:21:22;21.77;;;15.23;;
49584;SDS011;35491;49.142;9.210;2022-12-07T20:22:32;20.95;;;12.80;;
49584;SDS011;35491;49.142;9.210;2022-12-07T20:23:57;17.65;;;12.82;;
49584;SDS011;35491;49.142;9.210;2022-12-07T20:25:03;18.05;;;13.38;;
49584;SDS011;35491;49.142;9.210;2022-12-07T20:26:23;16.85;;;11.15;;
49584;SDS011;35491;49.142;9.210;2022-12-07T20:28:09;16.23;;;10.93;;
49584;SDS011;35491;49.142;9.210;2022-12-07T20:31:18;16.02;;;11.45;;
49584;SDS011;35491;49.142;9.210;2022-12-07T20:33:20;16.85;;;12.45;;
49584;SDS011;35491;49.142;9.210;2022-12-07T20:36:35;19.88;;;12.60;;
49584;SDS011;35491;49.142;9.210;2022-12-07T20:38:00;19.80;;;12.93;;
49584;SDS011;35491;49.142;9.210;2022-12-07T20:39:17;15.95;;;11.80;;
49584;SDS011;35491;49.142;9.210;2022-12-07T20:40:32;18.63;;;12.80;;
49584;SDS011;35491;49.142;9.210;2022-12-07T20:42:07;16.25;;;11.93;;
49584;SDS011;35491;49.142;9.210;2022-12-07T20:43:39;18.63;;;12.50;;
49584;SDS011;35491;49.142;9.210;2022-12-07T20:45:01;18.60;;;12.95;;
49584;SDS011;35491;49.142;9.210;2022-12-07T20:46:11;16.48;;;11.45;;
49584;SDS011;35491;49.142;9.210;2022-12-07T20:47:17;18.38;;;12.20;;
49584;SDS011;35491;49.142;9.210;2022-12-07T20:48:49;18.58;;;11.85;;
49584;SDS011;35491;49.142;9.210;2022-12-07T20:50:26;16.80;;;11.90;;
49584;SDS011;35491;49.142;9.210;2022-12-07T20:51:41;18.42;;;11.90;;
49584;SDS011;35491;49.142;9.210;2022-12-07T20:53:05;19.10;;;11.15;;
49584;SDS011;35491;49.142;9.210;2022-12-07T20:54:12;16.10;;;11.45;;
49584;SDS011;35491;49.142;9.210;2022-12-07T20:55:26;17.80;;;12.88;;
49584;SDS011;35491;49.142;9.210;2022-12-07T20:57:14;15.57;;;11.68;;
49584;SDS011;35491;49.142;9.210;2022-12-07T20:59:59;17.73;;;12.10;;
49584;SDS011;35491;49.142;9.210;2022-12-07T21:01:06;16.50;;;11.43;;
49584;SDS011;35491;49.142;9.210;2022-12-07T21:02:13;15.23;;;10.98;;
49584;SDS011;35491;49.142;9.210;2022-12-07T21:03:28;15.38;;;11.18;;
49584;SDS011;35491;49.142;9.210;2022-12-07T21:04:30;18.27;;;10.95;;
49584;SDS011;35491;49.142;9.210;2022-12-07T21:05:38;16.35;;;11.38;;
49584;SDS011;35491;49.142;9.210;2022-12-07T21:06:45;15.23;;;10.82;;
49584;SDS011;35491;49.142;9.210;2022-12-07T21:08:04;16.05;;;11.00;;
49584;SDS011;35491;49.142;9.210;2022-12-07T21:09:15;16.05;;;10.98;;
49584;SDS011;35491;49.142;9.210;2022-12-07T21:10:26;16.00;;;11.73;;
49584;SDS011;35491;49.142;9.210;2022-12-07T21:11:28;15.52;;;10.60;;
49584;SDS011;35491;49.142;9.210;2022-12-07T21:12:37;13.73;;;10.07;;
49584;SDS011;35491;49.142;9.210;2022-12-07T21:13:39;14.02;;;10.25;;
49584;SDS011;35491;49.142;9.210;2022-12-07T21:14:44;14.10;;;10.32;;
49584;SDS011;35491;49.142;9.210;2022-12-07T21:15:49;15.35;;;10.52;;
49584;SDS011;35491;49.142;9.210;2022-12-07T21:16:51;18.13;;;10.90;;
49584;SDS011;35491;49.142;9.210;2022-12-07T21:17:56;15.15;;;10.73;;
49584;SDS011;35491;49.142;9.210;2022-12-07T21:19:01;13.57;;;10.05;;
49584;SDS011;35491;49.142;9.210;2022-12-07T21:20:05;16.70;;;11.35;;
49584;SDS011;35491;49.142;9.210;2022-12-07T21:21:48;16.08;;;10.45;;
49584;SDS011;35491;49.142;9.210;2022-12-07T21:22:57;17.80;;;11.50;;
49584;SDS011;35491;49.142;9.210;2022-12-07T21:24:20;16.50;;;10.93;;
49584;SDS011;35491;49.142;9.210;2022-12-07T21:25:27;15.45;;;10.25;;